createdAt,value
2023-04-27T00:04:38.969Z,8.57
2023-04-27T00:09:41.718Z,7.63
2023-04-27T00:14:45.776Z,7.68
2023-04-27T00:19:48.520Z,8.05
2023-04-27T00:24:51.094Z,8.30
2023-04-27T00:29:55.018Z,7.97
2023-04-27T00:34:57.560Z,9.80
2023-04-27T00:40:00.174Z,8.85
2023-04-27T00:45:05.957Z,8.70
2023-04-27T00:50:10.435Z,8.50
2023-04-27T00:55:13.018Z,8.10
2023-04-27T01:00:17.182Z,7.57
2023-04-27T01:05:20.211Z,7.85
2023-04-27T01:10:23.001Z,8.02
2023-04-27T01:15:27.035Z,8.17
2023-04-27T01:20:30.272Z,9.20
2023-04-27T01:25:34.389Z,9.80
2023-04-27T01:30:37.006Z,8.80
2023-04-27T01:35:39.607Z,8.30
2023-04-27T01:40:43.612Z,9.00
2023-04-27T01:45:46.676Z,10.02
2023-04-27T01:50:49.435Z,8.75
2023-04-27T01:55:53.366Z,8.93
2023-04-27T02:00:56.125Z,9.43
2023-04-27T02:05:58.761Z,8.63
2023-04-27T02:11:02.834Z,11.10
2023-04-27T02:16:05.805Z,10.02
2023-04-27T02:21:11.793Z,10.87
2023-04-27T02:26:19.308Z,9.50
2023-04-27T02:31:22.103Z,8.75
2023-04-27T02:36:24.784Z,9.20
2023-04-27T02:41:28.928Z,10.07
2023-04-27T02:46:31.610Z,9.98
2023-04-27T02:51:34.237Z,8.98
2023-04-27T02:56:38.182Z,10.77
2023-04-27T03:01:40.806Z,9.40
2023-04-27T03:06:43.355Z,9.15
2023-04-27T03:11:47.338Z,9.70
2023-04-27T03:16:49.992Z,9.98
2023-04-27T03:21:52.638Z,9.88
2023-04-27T03:26:56.633Z,8.98
2023-04-27T03:31:59.254Z,9.93
2023-04-27T03:37:02.924Z,8.02
2023-04-27T03:47:09.849Z,9.02
2023-04-27T03:52:12.463Z,9.48
2023-04-27T03:57:16.477Z,10.43
2023-04-27T04:02:19.243Z,10.00
2023-04-27T04:07:21.903Z,10.07
2023-04-27T04:12:25.853Z,10.88
2023-04-27T04:17:28.466Z,11.02
2023-04-27T04:22:31.051Z,11.93
2023-04-27T04:27:34.985Z,11.32
2023-04-27T04:32:38.744Z,11.10
2023-04-27T04:37:41.404Z,10.30
2023-04-27T04:42:46.032Z,10.15
2023-04-27T04:47:50.462Z,12.02
2023-04-27T04:52:53.149Z,13.13
2023-04-27T04:57:57.094Z,10.57
2023-04-27T05:03:01.151Z,8.98
2023-04-27T05:08:03.955Z,9.43
2023-04-27T05:13:07.865Z,8.13
2023-04-27T05:18:10.432Z,10.23
2023-04-27T05:23:13.106Z,9.80
2023-04-27T05:28:17.055Z,9.70
2023-04-27T05:33:19.596Z,11.10
2023-04-27T05:38:22.191Z,12.10
2023-04-27T05:43:26.710Z,15.48
2023-04-27T05:48:29.299Z,14.05
2023-04-27T05:53:33.888Z,12.77
2023-04-27T05:58:37.829Z,12.13
2023-04-27T06:03:40.736Z,11.98
2023-04-27T06:08:43.473Z,10.20
2023-04-27T06:13:48.126Z,10.57
2023-04-27T06:18:51.347Z,7.78
2023-04-27T06:23:53.965Z,6.55
2023-04-27T06:28:58.122Z,5.57
2023-04-27T06:34:00.855Z,4.93
2023-04-27T06:39:03.529Z,4.00
2023-04-27T06:44:07.505Z,3.88
2023-04-27T06:49:10.112Z,3.33
2023-04-27T06:54:12.635Z,3.58
2023-04-27T06:59:16.583Z,2.70
2023-04-27T07:04:19.317Z,2.72
2023-04-27T07:14:30.560Z,3.15
2023-04-27T07:19:33.205Z,3.20
2023-04-27T07:24:35.725Z,2.90
2023-04-27T07:29:39.674Z,2.42
2023-04-27T07:34:52.541Z,2.90
2023-04-27T07:39:57.657Z,2.45
2023-04-27T07:45:01.577Z,2.70
2023-04-27T07:50:06.230Z,2.58
2023-04-27T07:55:09.867Z,2.63
2023-04-27T08:00:14.752Z,2.75
2023-04-27T08:05:18.263Z,2.70
2023-04-27T08:10:21.431Z,3.00
2023-04-27T08:15:25.552Z,2.70
2023-04-27T08:20:29.192Z,2.65
2023-04-27T08:25:31.749Z,2.80
2023-04-27T08:30:35.693Z,2.85
2023-04-27T08:35:38.386Z,2.53
2023-04-27T08:40:44.037Z,2.08
2023-04-27T08:45:50.893Z,2.20
2023-04-27T08:50:54.595Z,2.15
2023-04-27T08:55:57.873Z,2.03
2023-04-27T09:01:06.876Z,2.45
2023-04-27T09:06:09.948Z,2.00
2023-04-27T09:11:13.155Z,1.75
2023-04-27T09:16:23.688Z,1.85
2023-04-27T09:21:27.778Z,2.67
2023-04-27T09:26:31.856Z,2.45
2023-04-27T09:31:37.134Z,2.40
2023-04-27T09:36:41.447Z,1.98
2023-04-27T09:41:44.120Z,2.30
2023-04-27T09:46:48.928Z,2.25
2023-04-27T09:51:53.102Z,2.50
2023-04-27T09:57:04.514Z,2.25
2023-04-27T10:02:24.241Z,2.53
2023-04-27T10:07:28.811Z,3.03
2023-04-27T10:12:36.255Z,2.50
2023-04-27T10:17:41.051Z,2.55
2023-04-27T10:22:44.862Z,2.15
2023-04-27T10:27:52.900Z,2.20
2023-04-27T10:32:58.511Z,2.50
2023-04-27T10:38:08.373Z,2.10
2023-04-27T10:43:12.339Z,2.28
2023-04-27T10:48:16.581Z,2.22
2023-04-27T10:53:19.294Z,2.58
2023-04-27T10:58:25.455Z,2.20
2023-04-27T11:03:32.789Z,2.33
2023-04-27T11:08:45.149Z,2.53
2023-04-27T11:13:49.849Z,3.15
2023-04-27T11:18:53.805Z,2.70
2023-04-27T11:23:56.853Z,3.13
2023-04-27T11:29:00.632Z,2.90
2023-04-27T11:34:04.694Z,3.45
2023-04-27T11:39:07.423Z,2.80
2023-04-27T11:44:12.039Z,3.10
2023-04-27T11:49:16.167Z,3.50
2023-04-27T11:54:18.809Z,2.42
2023-04-27T11:59:23.052Z,2.58
2023-04-27T12:04:27.492Z,3.20
2023-04-27T12:09:30.272Z,2.85
2023-04-27T12:14:33.904Z,3.20
2023-04-27T12:19:37.947Z,2.58
2023-04-27T12:24:40.732Z,2.70
2023-04-27T12:34:47.240Z,2.65
2023-04-27T12:39:49.763Z,3.28
2023-04-27T12:44:53.252Z,2.85
2023-04-27T12:49:57.235Z,2.90
2023-04-27T12:55:00.006Z,2.95
2023-04-27T13:05:09.852Z,2.72
2023-04-27T13:10:12.636Z,2.75
2023-04-27T13:15:15.217Z,3.17
2023-04-27T13:20:19.177Z,3.00
2023-04-27T13:25:21.799Z,3.35
2023-04-27T13:30:24.459Z,3.30
2023-04-27T13:35:28.749Z,3.78
2023-04-27T13:40:31.355Z,3.30
2023-04-27T13:45:33.952Z,2.90
2023-04-27T13:50:37.838Z,3.65
2023-04-27T13:55:40.475Z,3.10
2023-04-27T14:00:43.175Z,2.97
2023-04-27T14:05:48.755Z,3.20
2023-04-27T14:10:51.423Z,4.03
2023-04-27T14:15:53.959Z,3.75
2023-04-27T14:20:57.912Z,3.67
2023-04-27T14:26:00.516Z,4.00
2023-04-27T14:31:03.153Z,3.50
2023-04-27T14:36:07.697Z,3.92
2023-04-27T14:41:10.366Z,3.70
2023-04-27T14:46:20.736Z,3.80
2023-04-27T14:51:25.398Z,4.13
2023-04-27T14:56:27.988Z,3.30
2023-04-27T15:01:30.671Z,3.67
2023-04-27T15:06:34.663Z,3.53
2023-04-27T15:11:37.202Z,3.75
2023-04-27T15:16:39.838Z,4.18
2023-04-27T15:21:43.851Z,4.90
2023-04-27T15:26:47.435Z,4.38
2023-04-27T15:31:50.161Z,3.80
2023-04-27T15:36:54.136Z,3.38
2023-04-27T15:41:58.527Z,4.00
2023-04-27T15:47:01.366Z,3.42
2023-04-27T15:52:06.066Z,4.10
2023-04-27T15:57:08.649Z,3.25
2023-04-27T16:02:11.485Z,3.65
2023-04-27T16:07:15.636Z,3.65
2023-04-27T16:12:18.251Z,3.45
2023-04-27T16:17:20.846Z,3.60
2023-04-27T16:22:24.979Z,4.20
2023-04-27T16:27:27.752Z,4.00
2023-04-27T16:32:31.484Z,4.13
2023-04-27T16:37:37.012Z,4.10
2023-04-27T16:42:39.585Z,3.80
2023-04-27T16:47:42.496Z,3.90
2023-04-27T16:52:46.511Z,4.03
2023-04-27T16:57:49.224Z,4.03
2023-04-27T17:02:52.078Z,3.47
2023-04-27T17:07:56.208Z,3.90
2023-04-27T17:12:58.788Z,3.95
2023-04-27T17:18:04.584Z,4.90
2023-04-27T17:23:08.606Z,4.80
2023-04-27T17:28:11.320Z,3.92
2023-04-27T17:33:14.833Z,4.05
2023-04-27T17:38:18.865Z,4.00
2023-04-27T17:43:21.445Z,3.90
2023-04-27T17:48:24.049Z,3.50
2023-04-27T17:53:27.963Z,3.97
2023-04-27T17:58:32.384Z,4.13
2023-04-27T18:03:35.127Z,4.32
2023-04-27T18:08:39.155Z,4.63
2023-04-27T18:13:42.396Z,4.25
2023-04-27T18:18:46.027Z,4.50
2023-04-27T18:23:49.964Z,4.35
2023-04-27T18:28:52.574Z,5.20
2023-04-27T18:33:55.968Z,4.50
2023-04-27T18:39:00.019Z,4.88
2023-04-27T18:44:06.178Z,4.70
2023-04-27T18:49:08.792Z,6.30
2023-04-27T18:54:12.867Z,4.87
2023-04-27T18:59:15.895Z,5.03
2023-04-27T19:04:18.921Z,4.70
2023-04-27T19:09:22.957Z,4.78
2023-04-27T19:14:25.799Z,5.63
2023-04-27T19:19:28.432Z,5.20
2023-04-27T19:24:32.589Z,5.10
2023-04-27T19:29:49.951Z,4.90
2023-04-27T19:34:53.950Z,5.45
2023-04-27T19:39:57.907Z,4.88
2023-04-27T19:45:00.857Z,5.80
2023-04-27T19:50:04.845Z,5.20
2023-04-27T19:55:09.577Z,5.20
2023-04-27T20:00:13.108Z,5.40
2023-04-27T20:10:21.140Z,4.80
2023-04-27T20:15:23.894Z,5.00
2023-04-27T20:20:26.421Z,4.90
2023-04-27T20:25:30.628Z,4.85
2023-04-27T20:30:33.219Z,5.22
2023-04-27T20:35:36.965Z,5.67
2023-04-27T20:40:42.073Z,5.30
2023-04-27T20:45:44.877Z,5.03
2023-04-27T20:50:47.446Z,5.23
2023-04-27T20:55:51.353Z,5.32
2023-04-27T21:00:53.983Z,4.63
2023-04-27T21:05:56.589Z,4.73
2023-04-27T21:11:00.493Z,5.10
2023-04-27T21:16:03.997Z,4.80
2023-04-27T21:26:10.818Z,4.88
2023-04-27T21:31:13.469Z,5.22
2023-04-27T21:36:16.153Z,4.87
2023-04-27T21:41:20.040Z,4.13
2023-04-27T21:46:24.174Z,5.10
2023-04-27T21:51:26.837Z,4.07
2023-04-27T21:56:30.767Z,4.30
2023-04-27T22:01:33.351Z,4.22
2023-04-27T22:06:35.955Z,4.83
2023-04-27T22:11:39.892Z,4.47
2023-04-27T22:16:42.852Z,4.75
2023-04-27T22:21:45.608Z,4.43
2023-04-27T22:26:49.475Z,4.00
2023-04-27T22:31:52.476Z,4.15
2023-04-27T22:36:55.162Z,4.53
2023-04-27T22:41:59.590Z,3.72
2023-04-27T22:47:02.767Z,4.22
2023-04-27T22:52:05.879Z,3.88
2023-04-27T22:57:10.030Z,4.63
2023-04-27T23:02:13.700Z,4.40
2023-04-27T23:07:18.291Z,4.07
2023-04-27T23:12:22.345Z,4.72
2023-04-27T23:17:29.580Z,4.50
2023-04-27T23:22:32.238Z,4.45
2023-04-27T23:27:36.330Z,4.03
2023-04-27T23:32:38.902Z,4.80
2023-04-27T23:37:41.481Z,5.15
2023-04-27T23:42:45.371Z,4.43
2023-04-27T23:47:49.026Z,4.32
2023-04-27T23:52:51.613Z,4.00
2023-04-27T23:57:56.198Z,5.50
